sensor_id;sensor_type;location;lat;lon;timestamp;P1;durP1;ratioP1;P2;durP2;ratioP2
77522;SDS011;66637;-29.628;-49.938;2023-04-10T00:02:07;16.58;;;2.05;;
77522;SDS011;66637;-29.628;-49.938;2023-04-10T00:04:43;21.88;;;2.30;;
77522;SDS011;66637;-29.628;-49.938;2023-04-10T00:07:27;33.03;;;4.03;;
77522;SDS011;66637;-29.628;-49.938;2023-04-10T00:10:01;24.13;;;3.53;;
77522;SDS011;66637;-29.628;-49.938;2023-04-10T00:12:35;47.70;;;5.50;;
77522;SDS011;66637;-29.628;-49.938;2023-04-10T00:15:22;29.17;;;4.43;;
77522;SDS011;66637;-29.628;-49.938;2023-04-10T00:18:04;25.08;;;3.75;;
77522;SDS011;66637;-29.628;-49.938;2023-04-10T00:20:54;23.25;;;3.55;;
77522;SDS011;66637;-29.628;-49.938;2023-04-10T00:23:32;17.17;;;3.15;;
77522;SDS011;66637;-29.628;-49.938;2023-04-10T00:26:06;21.60;;;2.47;;
77522;SDS011;66637;-29.628;-49.938;2023-04-10T00:28:46;13.80;;;2.15;;
77522;SDS011;66637;-29.628;-49.938;2023-04-10T00:31:56;16.58;;;1.88;;
77522;SDS011;66637;-29.628;-49.938;2023-04-10T00:34:51;15.65;;;2.72;;
77522;SDS011;66637;-29.628;-49.938;2023-04-10T00:38:02;18.08;;;2.38;;
77522;SDS011;66637;-29.628;-49.938;2023-04-10T00:40:47;22.25;;;2.72;;
77522;SDS011;66637;-29.628;-49.938;2023-04-10T00:44:13;20.25;;;2.83;;
77522;SDS011;66637;-29.628;-49.938;2023-04-10T00:47:00;16.95;;;3.25;;
77522;SDS011;66637;-29.628;-49.938;2023-04-10T00:49:52;16.80;;;2.45;;
77522;SDS011;66637;-29.628;-49.938;2023-04-10T00:53:10;23.67;;;3.60;;
77522;SDS011;66637;-29.628;-49.938;2023-04-10T00:56:14;22.15;;;3.22;;
77522;SDS011;66637;-29.628;-49.938;2023-04-10T00:59:27;39.15;;;4.40;;
77522;SDS011;66637;-29.628;-49.938;2023-04-10T01:02:18;36.80;;;5.00;;
77522;SDS011;66637;-29.628;-49.938;2023-04-10T01:05:32;32.83;;;4.22;;
77522;SDS011;66637;-29.628;-49.938;2023-04-10T01:12:24;36.60;;;5.22;;
77522;SDS011;66637;-29.628;-49.938;2023-04-10T01:15:54;39.47;;;5.00;;
77522;SDS011;66637;-29.628;-49.938;2023-04-10T01:19:20;66.93;;;8.52;;
77522;SDS011;66637;-29.628;-49.938;2023-04-10T01:26:12;96.50;;;13.20;;
77522;SDS011;66637;-29.628;-49.938;2023-04-10T01:32:30;94.88;;;14.15;;
77522;SDS011;66637;-29.628;-49.938;2023-04-10T01:35:52;81.22;;;11.00;;
77522;SDS011;66637;-29.628;-49.938;2023-04-10T01:39:20;81.90;;;11.32;;
77522;SDS011;66637;-29.628;-49.938;2023-04-10T01:42:26;100.45;;;13.23;;
77522;SDS011;66637;-29.628;-49.938;2023-04-10T01:45:07;82.57;;;12.23;;
77522;SDS011;66637;-29.628;-49.938;2023-04-10T01:48:05;100.97;;;13.07;;
77522;SDS011;66637;-29.628;-49.938;2023-04-10T01:51:50;96.68;;;13.73;;
77522;SDS011;66637;-29.628;-49.938;2023-04-10T01:55:03;69.20;;;9.23;;
77522;SDS011;66637;-29.628;-49.938;2023-04-10T01:58:34;76.07;;;10.20;;
77522;SDS011;66637;-29.628;-49.938;2023-04-10T02:01:28;54.67;;;7.85;;
77522;SDS011;66637;-29.628;-49.938;2023-04-10T02:04:50;49.00;;;6.53;;
77522;SDS011;66637;-29.628;-49.938;2023-04-10T02:07:54;47.03;;;6.72;;
77522;SDS011;66637;-29.628;-49.938;2023-04-10T02:19:11;63.47;;;8.77;;
77522;SDS011;66637;-29.628;-49.938;2023-04-10T02:22:31;37.20;;;5.38;;
77522;SDS011;66637;-29.628;-49.938;2023-04-10T02:29:44;28.52;;;4.00;;
77522;SDS011;66637;-29.628;-49.938;2023-04-10T02:32:55;23.02;;;3.53;;
77522;SDS011;66637;-29.628;-49.938;2023-04-10T02:36:02;26.50;;;3.35;;
77522;SDS011;66637;-29.628;-49.938;2023-04-10T02:38:58;19.15;;;3.78;;
77522;SDS011;66637;-29.628;-49.938;2023-04-10T02:42:10;24.02;;;3.83;;
77522;SDS011;66637;-29.628;-49.938;2023-04-10T02:45:36;15.65;;;2.40;;
77522;SDS011;66637;-29.628;-49.938;2023-04-10T02:48:50;12.25;;;1.70;;
77522;SDS011;66637;-29.628;-49.938;2023-04-10T02:51:53;12.23;;;2.05;;
77522;SDS011;66637;-29.628;-49.938;2023-04-10T02:54:57;13.60;;;1.90;;
77522;SDS011;66637;-29.628;-49.938;2023-04-10T03:02:48;7.13;;;1.40;;
77522;SDS011;66637;-29.628;-49.938;2023-04-10T03:06:13;7.18;;;1.27;;
77522;SDS011;66637;-29.628;-49.938;2023-04-10T03:09:30;11.13;;;1.50;;
77522;SDS011;66637;-29.628;-49.938;2023-04-10T03:12:21;11.02;;;1.63;;
77522;SDS011;66637;-29.628;-49.938;2023-04-10T03:15:24;10.38;;;2.13;;
77522;SDS011;66637;-29.628;-49.938;2023-04-10T03:18:47;6.82;;;1.27;;
77522;SDS011;66637;-29.628;-49.938;2023-04-10T03:22:14;8.57;;;1.83;;
77522;SDS011;66637;-29.628;-49.938;2023-04-10T03:25:12;7.88;;;1.70;;
77522;SDS011;66637;-29.628;-49.938;2023-04-10T03:28:24;11.40;;;2.15;;
77522;SDS011;66637;-29.628;-49.938;2023-04-10T03:35:19;8.63;;;1.27;;
77522;SDS011;66637;-29.628;-49.938;2023-04-10T03:38:18;5.82;;;1.30;;
77522;SDS011;66637;-29.628;-49.938;2023-04-10T03:41:24;11.90;;;2.20;;
77522;SDS011;66637;-29.628;-49.938;2023-04-10T03:44:19;14.55;;;2.28;;
77522;SDS011;66637;-29.628;-49.938;2023-04-10T03:47:16;10.02;;;1.77;;
77522;SDS011;66637;-29.628;-49.938;2023-04-10T03:50:12;13.07;;;1.90;;
77522;SDS011;66637;-29.628;-49.938;2023-04-10T03:53:07;9.13;;;1.67;;
77522;SDS011;66637;-29.628;-49.938;2023-04-10T03:56:15;11.90;;;2.15;;
77522;SDS011;66637;-29.628;-49.938;2023-04-10T03:59:58;8.95;;;1.98;;
77522;SDS011;66637;-29.628;-49.938;2023-04-10T04:03:41;16.30;;;2.33;;
77522;SDS011;66637;-29.628;-49.938;2023-04-10T04:06:38;20.27;;;2.72;;
77522;SDS011;66637;-29.628;-49.938;2023-04-10T04:10:14;36.60;;;5.30;;
77522;SDS011;66637;-29.628;-49.938;2023-04-10T04:16:38;35.05;;;5.45;;
77522;SDS011;66637;-29.628;-49.938;2023-04-10T04:19:47;44.05;;;6.65;;
77522;SDS011;66637;-29.628;-49.938;2023-04-10T04:23:00;44.00;;;5.45;;
77522;SDS011;66637;-29.628;-49.938;2023-04-10T04:26:26;25.33;;;4.20;;
77522;SDS011;66637;-29.628;-49.938;2023-04-10T04:30:17;19.23;;;2.90;;
77522;SDS011;66637;-29.628;-49.938;2023-04-10T04:33:25;15.35;;;2.90;;
77522;SDS011;66637;-29.628;-49.938;2023-04-10T04:41:31;8.13;;;1.60;;
77522;SDS011;66637;-29.628;-49.938;2023-04-10T04:49:21;11.02;;;2.17;;
77522;SDS011;66637;-29.628;-49.938;2023-04-10T04:52:49;7.18;;;1.80;;
77522;SDS011;66637;-29.628;-49.938;2023-04-10T04:56:07;9.82;;;2.20;;
77522;SDS011;66637;-29.628;-49.938;2023-04-10T05:02:47;8.60;;;2.00;;
77522;SDS011;66637;-29.628;-49.938;2023-04-10T05:06:14;10.90;;;2.17;;
77522;SDS011;66637;-29.628;-49.938;2023-04-10T05:09:32;10.77;;;2.33;;
77522;SDS011;66637;-29.628;-49.938;2023-04-10T05:12:58;21.20;;;3.53;;
77522;SDS011;66637;-29.628;-49.938;2023-04-10T05:16:49;31.80;;;4.75;;
77522;SDS011;66637;-29.628;-49.938;2023-04-10T05:21:00;9.38;;;2.20;;
77522;SDS011;66637;-29.628;-49.938;2023-04-10T05:24:36;8.98;;;2.72;;
77522;SDS011;66637;-29.628;-49.938;2023-04-10T05:28:11;14.23;;;2.75;;
77522;SDS011;66637;-29.628;-49.938;2023-04-10T05:31:19;12.13;;;2.75;;
77522;SDS011;66637;-29.628;-49.938;2023-04-10T05:34:43;9.55;;;2.35;;
77522;SDS011;66637;-29.628;-49.938;2023-04-10T05:37:45;8.95;;;2.10;;
77522;SDS011;66637;-29.628;-49.938;2023-04-10T05:41:19;11.10;;;2.75;;
77522;SDS011;66637;-29.628;-49.938;2023-04-10T05:48:18;11.18;;;2.58;;
77522;SDS011;66637;-29.628;-49.938;2023-04-10T05:51:43;12.70;;;2.53;;
77522;SDS011;66637;-29.628;-49.938;2023-04-10T05:55:14;12.73;;;2.83;;
77522;SDS011;66637;-29.628;-49.938;2023-04-10T05:58:16;13.75;;;2.42;;
77522;SDS011;66637;-29.628;-49.938;2023-04-10T06:02:00;11.95;;;2.88;;
77522;SDS011;66637;-29.628;-49.938;2023-04-10T06:04:57;11.27;;;2.40;;
77522;SDS011;66637;-29.628;-49.938;2023-04-10T06:07:59;12.02;;;2.63;;
77522;SDS011;66637;-29.628;-49.938;2023-04-10T06:10:57;16.98;;;2.65;;
77522;SDS011;66637;-29.628;-49.938;2023-04-10T06:13:41;9.15;;;2.35;;
77522;SDS011;66637;-29.628;-49.938;2023-04-10T06:16:34;14.40;;;2.58;;
77522;SDS011;66637;-29.628;-49.938;2023-04-10T06:19:38;7.70;;;2.20;;
77522;SDS011;66637;-29.628;-49.938;2023-04-10T06:22:34;11.80;;;2.80;;
77522;SDS011;66637;-29.628;-49.938;2023-04-10T06:25:25;12.75;;;2.60;;
77522;SDS011;66637;-29.628;-49.938;2023-04-10T06:28:22;10.45;;;2.63;;
77522;SDS011;66637;-29.628;-49.938;2023-04-10T06:31:21;9.57;;;3.10;;
77522;SDS011;66637;-29.628;-49.938;2023-04-10T06:41:06;11.30;;;3.13;;
77522;SDS011;66637;-29.628;-49.938;2023-04-10T06:43:56;11.07;;;2.70;;
77522;SDS011;66637;-29.628;-49.938;2023-04-10T06:46:53;9.18;;;2.80;;
77522;SDS011;66637;-29.628;-49.938;2023-04-10T06:49:31;11.48;;;3.00;;
77522;SDS011;66637;-29.628;-49.938;2023-04-10T06:52:16;8.57;;;2.30;;
77522;SDS011;66637;-29.628;-49.938;2023-04-10T06:54:58;12.25;;;2.50;;
77522;SDS011;66637;-29.628;-49.938;2023-04-10T06:58:02;11.30;;;2.92;;
77522;SDS011;66637;-29.628;-49.938;2023-04-10T07:00:48;6.97;;;2.42;;
77522;SDS011;66637;-29.628;-49.938;2023-04-10T07:03:46;13.07;;;2.92;;
77522;SDS011;66637;-29.628;-49.938;2023-04-10T07:06:38;8.10;;;2.85;;
77522;SDS011;66637;-29.628;-49.938;2023-04-10T07:09:28;8.15;;;2.70;;
77522;SDS011;66637;-29.628;-49.938;2023-04-10T07:12:33;15.77;;;3.75;;
77522;SDS011;66637;-29.628;-49.938;2023-04-10T07:15:21;36.58;;;5.03;;
77522;SDS011;66637;-29.628;-49.938;2023-04-10T07:18:08;55.80;;;8.20;;
77522;SDS011;66637;-29.628;-49.938;2023-04-10T07:21:14;71.93;;;9.40;;
77522;SDS011;66637;-29.628;-49.938;2023-04-10T07:24:23;59.13;;;9.00;;
77522;SDS011;66637;-29.628;-49.938;2023-04-10T07:30:22;38.35;;;6.95;;
77522;SDS011;66637;-29.628;-49.938;2023-04-10T07:33:37;25.98;;;5.00;;
77522;SDS011;66637;-29.628;-49.938;2023-04-10T07:39:33;13.43;;;3.55;;
77522;SDS011;66637;-29.628;-49.938;2023-04-10T07:42:27;11.50;;;3.22;;
77522;SDS011;66637;-29.628;-49.938;2023-04-10T07:44:59;13.82;;;2.97;;
77522;SDS011;66637;-29.628;-49.938;2023-04-10T07:48:01;4.88;;;2.20;;
77522;SDS011;66637;-29.628;-49.938;2023-04-10T07:50:48;12.43;;;2.72;;
77522;SDS011;66637;-29.628;-49.938;2023-04-10T07:53:46;14.25;;;2.90;;
77522;SDS011;66637;-29.628;-49.938;2023-04-10T07:56:34;11.90;;;3.20;;
77522;SDS011;66637;-29.628;-49.938;2023-04-10T07:59:23;12.07;;;2.58;;
77522;SDS011;66637;-29.628;-49.938;2023-04-10T08:02:38;10.63;;;2.53;;
77522;SDS011;66637;-29.628;-49.938;2023-04-10T08:05:45;11.20;;;2.88;;
77522;SDS011;66637;-29.628;-49.938;2023-04-10T08:09:13;11.13;;;2.50;;
77522;SDS011;66637;-29.628;-49.938;2023-04-10T08:12:06;9.90;;;2.60;;
77522;SDS011;66637;-29.628;-49.938;2023-04-10T08:15:25;11.85;;;2.75;;
77522;SDS011;66637;-29.628;-49.938;2023-04-10T08:18:30;9.50;;;2.47;;
77522;SDS011;66637;-29.628;-49.938;2023-04-10T08:21:30;16.35;;;2.60;;
77522;SDS011;66637;-29.628;-49.938;2023-04-10T08:24:09;8.63;;;2.70;;
77522;SDS011;66637;-29.628;-49.938;2023-04-10T08:27:06;13.18;;;2.90;;
77522;SDS011;66637;-29.628;-49.938;2023-04-10T08:30:00;10.82;;;2.72;;
77522;SDS011;66637;-29.628;-49.938;2023-04-10T08:32:35;11.82;;;2.90;;
77522;SDS011;66637;-29.628;-49.938;2023-04-10T08:35:07;15.50;;;3.58;;
77522;SDS011;66637;-29.628;-49.938;2023-04-10T08:37:45;12.23;;;2.92;;
77522;SDS011;66637;-29.628;-49.938;2023-04-10T08:40:39;12.65;;;3.20;;
77522;SDS011;66637;-29.628;-49.938;2023-04-10T08:43:25;9.70;;;2.63;;
77522;SDS011;66637;-29.628;-49.938;2023-04-10T08:46:15;7.25;;;2.58;;
77522;SDS011;66637;-29.628;-49.938;2023-04-10T08:49:06;9.63;;;3.03;;
77522;SDS011;66637;-29.628;-49.938;2023-04-10T08:52:02;14.15;;;3.40;;
77522;SDS011;66637;-29.628;-49.938;2023-04-10T08:54:53;6.72;;;2.90;;
77522;SDS011;66637;-29.628;-49.938;2023-04-10T08:57:33;9.18;;;2.88;;
77522;SDS011;66637;-29.628;-49.938;2023-04-10T09:00:32;13.77;;;3.03;;
77522;SDS011;66637;-29.628;-49.938;2023-04-10T09:03:08;17.42;;;4.75;;
77522;SDS011;66637;-29.628;-49.938;2023-04-10T09:05:40;12.57;;;3.33;;
77522;SDS011;66637;-29.628;-49.938;2023-04-10T09:08:11;14.60;;;3.70;;
77522;SDS011;66637;-29.628;-49.938;2023-04-10T09:10:44;7.60;;;3.30;;
77522;SDS011;66637;-29.628;-49.938;2023-04-10T09:13:27;12.07;;;3.05;;
77522;SDS011;66637;-29.628;-49.938;2023-04-10T09:16:05;10.85;;;3.40;;
77522;SDS011;66637;-29.628;-49.938;2023-04-10T09:18:47;9.38;;;3.35;;
77522;SDS011;66637;-29.628;-49.938;2023-04-10T09:21:19;11.43;;;3.70;;
77522;SDS011;66637;-29.628;-49.938;2023-04-10T09:23:58;11.88;;;3.50;;
77522;SDS011;66637;-29.628;-49.938;2023-04-10T09:26:32;8.60;;;3.63;;
77522;SDS011;66637;-29.628;-49.938;2023-04-10T09:29:03;11.30;;;3.15;;
77522;SDS011;66637;-29.628;-49.938;2023-04-10T09:31:35;10.73;;;3.95;;
77522;SDS011;66637;-29.628;-49.938;2023-04-10T09:34:28;10.20;;;3.67;;
77522;SDS011;66637;-29.628;-49.938;2023-04-10T09:36:58;10.90;;;4.00;;
77522;SDS011;66637;-29.628;-49.938;2023-04-10T09:42:05;13.65;;;4.00;;
77522;SDS011;66637;-29.628;-49.938;2023-04-10T09:44:36;9.05;;;3.80;;
77522;SDS011;66637;-29.628;-49.938;2023-04-10T09:49:53;12.40;;;3.90;;
77522;SDS011;66637;-29.628;-49.938;2023-04-10T09:52:32;12.30;;;4.25;;
77522;SDS011;66637;-29.628;-49.938;2023-04-10T09:55:04;10.82;;;4.05;;
77522;SDS011;66637;-29.628;-49.938;2023-04-10T09:57:38;11.48;;;4.20;;
77522;SDS011;66637;-29.628;-49.938;2023-04-10T10:00:09;13.13;;;4.50;;
77522;SDS011;66637;-29.628;-49.938;2023-04-10T10:02:42;16.30;;;4.88;;
77522;SDS011;66637;-29.628;-49.938;2023-04-10T10:05:13;12.88;;;4.60;;
77522;SDS011;66637;-29.628;-49.938;2023-04-10T10:07:44;12.88;;;4.85;;
77522;SDS011;66637;-29.628;-49.938;2023-04-10T10:10:15;11.25;;;4.22;;
77522;SDS011;66637;-29.628;-49.938;2023-04-10T10:12:53;13.00;;;4.38;;
77522;SDS011;66637;-29.628;-49.938;2023-04-10T10:20:57;23.42;;;6.13;;
77522;SDS011;66637;-29.628;-49.938;2023-04-10T10:23:30;39.78;;;7.60;;
77522;SDS011;66637;-29.628;-49.938;2023-04-10T10:26:05;44.42;;;8.70;;
77522;SDS011;66637;-29.628;-49.938;2023-04-10T10:28:39;43.97;;;9.15;;
77522;SDS011;66637;-29.628;-49.938;2023-04-10T10:31:11;41.35;;;8.18;;
77522;SDS011;66637;-29.628;-49.938;2023-04-10T10:33:42;55.13;;;10.05;;
77522;SDS011;66637;-29.628;-49.938;2023-04-10T10:36:38;67.88;;;10.75;;
77522;SDS011;66637;-29.628;-49.938;2023-04-10T10:42:07;49.90;;;10.60;;
77522;SDS011;66637;-29.628;-49.938;2023-04-10T10:45:20;53.20;;;10.00;;
77522;SDS011;66637;-29.628;-49.938;2023-04-10T10:47:46;43.40;;;10.15;;
77522;SDS011;66637;-29.628;-49.938;2023-04-10T10:50:21;48.58;;;10.57;;
77522;SDS011;66637;-29.628;-49.938;2023-04-10T10:52:52;42.50;;;9.07;;
77522;SDS011;66637;-29.628;-49.938;2023-04-10T10:58:03;52.72;;;10.73;;
77522;SDS011;66637;-29.628;-49.938;2023-04-10T11:06:02;69.40;;;12.25;;
77522;SDS011;66637;-29.628;-49.938;2023-04-10T11:08:36;91.07;;;16.92;;
77522;SDS011;66637;-29.628;-49.938;2023-04-10T11:11:12;77.95;;;14.82;;
77522;SDS011;66637;-29.628;-49.938;2023-04-10T11:19:04;95.53;;;17.42;;
77522;SDS011;66637;-29.628;-49.938;2023-04-10T11:24:52;77.45;;;15.18;;
77522;SDS011;66637;-29.628;-49.938;2023-04-10T11:27:38;62.85;;;11.40;;
77522;SDS011;66637;-29.628;-49.938;2023-04-10T11:30:24;50.35;;;10.60;;
77522;SDS011;66637;-29.628;-49.938;2023-04-10T11:32:56;60.92;;;12.52;;
77522;SDS011;66637;-29.628;-49.938;2023-04-10T11:35:29;52.53;;;10.13;;
77522;SDS011;66637;-29.628;-49.938;2023-04-10T11:38:07;50.58;;;10.50;;
77522;SDS011;66637;-29.628;-49.938;2023-04-10T11:40:57;60.40;;;10.90;;
77522;SDS011;66637;-29.628;-49.938;2023-04-10T11:43:30;49.85;;;11.05;;
77522;SDS011;66637;-29.628;-49.938;2023-04-10T11:46:02;47.03;;;10.93;;
77522;SDS011;66637;-29.628;-49.938;2023-04-10T11:48:35;60.72;;;14.00;;
77522;SDS011;66637;-29.628;-49.938;2023-04-10T11:51:10;49.60;;;11.52;;
77522;SDS011;66637;-29.628;-49.938;2023-04-10T11:53:43;65.78;;;11.82;;
77522;SDS011;66637;-29.628;-49.938;2023-04-10T11:56:16;51.65;;;10.77;;
77522;SDS011;66637;-29.628;-49.938;2023-04-10T11:59:03;67.97;;;13.65;;
77522;SDS011;66637;-29.628;-49.938;2023-04-10T12:01:45;83.28;;;14.90;;
77522;SDS011;66637;-29.628;-49.938;2023-04-10T12:04:18;56.50;;;13.63;;
77522;SDS011;66637;-29.628;-49.938;2023-04-10T12:06:54;72.13;;;14.90;;
77522;SDS011;66637;-29.628;-49.938;2023-04-10T12:09:29;71.82;;;14.02;;
77522;SDS011;66637;-29.628;-49.938;2023-04-10T12:12:01;68.82;;;12.98;;
77522;SDS011;66637;-29.628;-49.938;2023-04-10T12:14:37;79.05;;;14.98;;
77522;SDS011;66637;-29.628;-49.938;2023-04-10T12:17:10;67.95;;;12.98;;
77522;SDS011;66637;-29.628;-49.938;2023-04-10T12:19:44;58.38;;;11.68;;
77522;SDS011;66637;-29.628;-49.938;2023-04-10T12:22:16;64.10;;;13.52;;
77522;SDS011;66637;-29.628;-49.938;2023-04-10T12:24:51;46.83;;;11.63;;
77522;SDS011;66637;-29.628;-49.938;2023-04-10T12:27:23;54.15;;;11.38;;
77522;SDS011;66637;-29.628;-49.938;2023-04-10T12:29:57;49.72;;;10.90;;
77522;SDS011;66637;-29.628;-49.938;2023-04-10T12:32:28;41.08;;;10.38;;
77522;SDS011;66637;-29.628;-49.938;2023-04-10T12:34:59;56.80;;;12.02;;
77522;SDS011;66637;-29.628;-49.938;2023-04-10T12:37:51;45.58;;;11.32;;
77522;SDS011;66637;-29.628;-49.938;2023-04-10T12:40:23;53.25;;;11.73;;
77522;SDS011;66637;-29.628;-49.938;2023-04-10T12:42:55;47.15;;;11.75;;
77522;SDS011;66637;-29.628;-49.938;2023-04-10T12:45:42;74.75;;;15.43;;
77522;SDS011;66637;-29.628;-49.938;2023-04-10T12:48:21;35.75;;;9.88;;
77522;SDS011;66637;-29.628;-49.938;2023-04-10T12:50:52;39.00;;;10.40;;
77522;SDS011;66637;-29.628;-49.938;2023-04-10T12:53:24;45.50;;;10.60;;
77522;SDS011;66637;-29.628;-49.938;2023-04-10T12:56:03;39.75;;;10.05;;
77522;SDS011;66637;-29.628;-49.938;2023-04-10T12:58:38;42.75;;;12.15;;
77522;SDS011;66637;-29.628;-49.938;2023-04-10T13:01:11;46.13;;;11.80;;
77522;SDS011;66637;-29.628;-49.938;2023-04-10T13:03:44;47.70;;;12.18;;
77522;SDS011;66637;-29.628;-49.938;2023-04-10T13:06:18;46.80;;;13.50;;
77522;SDS011;66637;-29.628;-49.938;2023-04-10T13:08:49;37.17;;;9.65;;
77522;SDS011;66637;-29.628;-49.938;2023-04-10T13:11:22;47.13;;;11.30;;
77522;SDS011;66637;-29.628;-49.938;2023-04-10T13:13:52;44.75;;;11.15;;
77522;SDS011;66637;-29.628;-49.938;2023-04-10T13:16:24;53.03;;;12.18;;
77522;SDS011;66637;-29.628;-49.938;2023-04-10T13:18:56;40.92;;;12.35;;
77522;SDS011;66637;-29.628;-49.938;2023-04-10T13:21:26;48.90;;;12.18;;
77522;SDS011;66637;-29.628;-49.938;2023-04-10T13:23:57;47.25;;;10.73;;
77522;SDS011;66637;-29.628;-49.938;2023-04-10T13:26:27;43.17;;;10.90;;
77522;SDS011;66637;-29.628;-49.938;2023-04-10T13:29:00;40.25;;;10.50;;
77522;SDS011;66637;-29.628;-49.938;2023-04-10T13:31:32;64.13;;;15.15;;
77522;SDS011;66637;-29.628;-49.938;2023-04-10T13:34:04;67.40;;;15.10;;
77522;SDS011;66637;-29.628;-49.938;2023-04-10T13:36:35;49.30;;;12.70;;
77522;SDS011;66637;-29.628;-49.938;2023-04-10T13:39:07;54.20;;;11.23;;
77522;SDS011;66637;-29.628;-49.938;2023-04-10T13:41:37;29.55;;;9.20;;
77522;SDS011;66637;-29.628;-49.938;2023-04-10T13:44:08;46.78;;;11.88;;
77522;SDS011;66637;-29.628;-49.938;2023-04-10T13:46:39;46.50;;;12.45;;
77522;SDS011;66637;-29.628;-49.938;2023-04-10T13:49:11;46.33;;;12.20;;
77522;SDS011;66637;-29.628;-49.938;2023-04-10T13:51:49;45.70;;;10.88;;
77522;SDS011;66637;-29.628;-49.938;2023-04-10T13:54:22;58.03;;;13.77;;
77522;SDS011;66637;-29.628;-49.938;2023-04-10T13:56:57;51.22;;;12.38;;
77522;SDS011;66637;-29.628;-49.938;2023-04-10T13:59:29;45.90;;;12.10;;
77522;SDS011;66637;-29.628;-49.938;2023-04-10T14:01:59;70.05;;;14.88;;
77522;SDS011;66637;-29.628;-49.938;2023-04-10T14:04:31;63.05;;;13.82;;
77522;SDS011;66637;-29.628;-49.938;2023-04-10T14:07:04;38.08;;;9.93;;
77522;SDS011;66637;-29.628;-49.938;2023-04-10T14:09:35;55.38;;;13.25;;
77522;SDS011;66637;-29.628;-49.938;2023-04-10T14:12:06;50.42;;;10.93;;
77522;SDS011;66637;-29.628;-49.938;2023-04-10T14:14:41;50.10;;;9.55;;
77522;SDS011;66637;-29.628;-49.938;2023-04-10T14:17:15;42.72;;;10.57;;
77522;SDS011;66637;-29.628;-49.938;2023-04-10T14:19:49;35.35;;;9.63;;
77522;SDS011;66637;-29.628;-49.938;2023-04-10T14:22:20;51.00;;;11.25;;
77522;SDS011;66637;-29.628;-49.938;2023-04-10T14:24:51;70.43;;;11.02;;
77522;SDS011;66637;-29.628;-49.938;2023-04-10T14:27:37;44.70;;;9.13;;
77522;SDS011;66637;-29.628;-49.938;2023-04-10T14:30:09;62.88;;;10.90;;
77522;SDS011;66637;-29.628;-49.938;2023-04-10T14:32:43;45.08;;;7.97;;
77522;SDS011;66637;-29.628;-49.938;2023-04-10T14:35:14;53.40;;;9.70;;
77522;SDS011;66637;-29.628;-49.938;2023-04-10T14:37:45;33.13;;;6.45;;
77522;SDS011;66637;-29.628;-49.938;2023-04-10T14:40:16;54.13;;;10.95;;
77522;SDS011;66637;-29.628;-49.938;2023-04-10T14:42:49;49.35;;;8.45;;
77522;SDS011;66637;-29.628;-49.938;2023-04-10T14:45:22;43.85;;;9.07;;
77522;SDS011;66637;-29.628;-49.938;2023-04-10T14:47:55;28.75;;;7.28;;
77522;SDS011;66637;-29.628;-49.938;2023-04-10T14:50:26;37.85;;;9.27;;
77522;SDS011;66637;-29.628;-49.938;2023-04-10T14:52:59;57.58;;;11.63;;
77522;SDS011;66637;-29.628;-49.938;2023-04-10T14:55:29;35.67;;;8.23;;
77522;SDS011;66637;-29.628;-49.938;2023-04-10T14:58:01;35.63;;;7.65;;
77522;SDS011;66637;-29.628;-49.938;2023-04-10T15:00:34;46.30;;;9.30;;
77522;SDS011;66637;-29.628;-49.938;2023-04-10T15:03:07;42.88;;;8.45;;
77522;SDS011;66637;-29.628;-49.938;2023-04-10T15:05:40;46.35;;;7.95;;
77522;SDS011;66637;-29.628;-49.938;2023-04-10T15:08:13;68.53;;;11.55;;
77522;SDS011;66637;-29.628;-49.938;2023-04-10T15:10:43;54.97;;;10.80;;
77522;SDS011;66637;-29.628;-49.938;2023-04-10T15:13:20;46.90;;;7.22;;
77522;SDS011;66637;-29.628;-49.938;2023-04-10T15:15:50;48.80;;;10.95;;
77522;SDS011;66637;-29.628;-49.938;2023-04-10T15:18:23;64.10;;;10.10;;
77522;SDS011;66637;-29.628;-49.938;2023-04-10T15:20:54;40.97;;;7.47;;
77522;SDS011;66637;-29.628;-49.938;2023-04-10T15:23:25;41.30;;;8.57;;
77522;SDS011;66637;-29.628;-49.938;2023-04-10T15:25:56;40.40;;;8.50;;
77522;SDS011;66637;-29.628;-49.938;2023-04-10T15:28:31;53.67;;;9.00;;
77522;SDS011;66637;-29.628;-49.938;2023-04-10T15:31:02;42.42;;;7.95;;
77522;SDS011;66637;-29.628;-49.938;2023-04-10T15:33:36;27.85;;;6.43;;
77522;SDS011;66637;-29.628;-49.938;2023-04-10T15:36:08;29.40;;;6.68;;
77522;SDS011;66637;-29.628;-49.938;2023-04-10T15:38:39;45.88;;;7.82;;
77522;SDS011;66637;-29.628;-49.938;2023-04-10T15:41:11;43.58;;;7.40;;
77522;SDS011;66637;-29.628;-49.938;2023-04-10T15:43:43;51.20;;;8.30;;
77522;SDS011;66637;-29.628;-49.938;2023-04-10T15:46:14;44.83;;;8.43;;
77522;SDS011;66637;-29.628;-49.938;2023-04-10T15:48:48;48.92;;;7.85;;
77522;SDS011;66637;-29.628;-49.938;2023-04-10T15:51:19;47.38;;;8.25;;
77522;SDS011;66637;-29.628;-49.938;2023-04-10T15:53:51;39.90;;;7.20;;
77522;SDS011;66637;-29.628;-49.938;2023-04-10T15:56:23;62.72;;;10.45;;
77522;SDS011;66637;-29.628;-49.938;2023-04-10T15:58:54;35.83;;;6.32;;
77522;SDS011;66637;-29.628;-49.938;2023-04-10T16:01:26;40.05;;;6.72;;
77522;SDS011;66637;-29.628;-49.938;2023-04-10T16:03:56;35.83;;;5.78;;
77522;SDS011;66637;-29.628;-49.938;2023-04-10T16:06:27;35.47;;;5.97;;
77522;SDS011;66637;-29.628;-49.938;2023-04-10T16:08:58;57.45;;;9.07;;
77522;SDS011;66637;-29.628;-49.938;2023-04-10T16:11:49;62.25;;;8.82;;
77522;SDS011;66637;-29.628;-49.938;2023-04-10T16:14:21;43.55;;;7.97;;
77522;SDS011;66637;-29.628;-49.938;2023-04-10T16:16:52;56.58;;;9.38;;
77522;SDS011;66637;-29.628;-49.938;2023-04-10T16:19:24;73.05;;;10.07;;
77522;SDS011;66637;-29.628;-49.938;2023-04-10T16:21:58;31.92;;;6.35;;
77522;SDS011;66637;-29.628;-49.938;2023-04-10T16:24:30;41.30;;;7.82;;
77522;SDS011;66637;-29.628;-49.938;2023-04-10T16:27:00;43.67;;;7.85;;
77522;SDS011;66637;-29.628;-49.938;2023-04-10T16:29:32;50.05;;;7.57;;
77522;SDS011;66637;-29.628;-49.938;2023-04-10T16:32:05;43.25;;;8.05;;
77522;SDS011;66637;-29.628;-49.938;2023-04-10T16:34:36;60.38;;;9.20;;
77522;SDS011;66637;-29.628;-49.938;2023-04-10T16:37:08;57.78;;;9.80;;
77522;SDS011;66637;-29.628;-49.938;2023-04-10T16:39:39;62.22;;;9.88;;
77522;SDS011;66637;-29.628;-49.938;2023-04-10T16:42:10;85.78;;;13.30;;
77522;SDS011;66637;-29.628;-49.938;2023-04-10T16:44:41;59.90;;;11.02;;
77522;SDS011;66637;-29.628;-49.938;2023-04-10T16:47:12;57.67;;;9.35;;
77522;SDS011;66637;-29.628;-49.938;2023-04-10T16:49:42;47.00;;;8.02;;
77522;SDS011;66637;-29.628;-49.938;2023-04-10T16:52:15;52.17;;;8.77;;
77522;SDS011;66637;-29.628;-49.938;2023-04-10T16:54:47;45.88;;;6.72;;
77522;SDS011;66637;-29.628;-49.938;2023-04-10T16:57:20;30.17;;;4.82;;
77522;SDS011;66637;-29.628;-49.938;2023-04-10T16:59:54;42.60;;;8.50;;
77522;SDS011;66637;-29.628;-49.938;2023-04-10T17:02:29;30.50;;;5.75;;
77522;SDS011;66637;-29.628;-49.938;2023-04-10T17:05:01;56.78;;;11.32;;
77522;SDS011;66637;-29.628;-49.938;2023-04-10T17:07:32;36.15;;;7.07;;
77522;SDS011;66637;-29.628;-49.938;2023-04-10T17:10:04;45.83;;;8.38;;
77522;SDS011;66637;-29.628;-49.938;2023-04-10T17:12:35;50.83;;;8.95;;
77522;SDS011;66637;-29.628;-49.938;2023-04-10T17:15:09;57.30;;;8.75;;
77522;SDS011;66637;-29.628;-49.938;2023-04-10T17:17:41;47.13;;;7.50;;
77522;SDS011;66637;-29.628;-49.938;2023-04-10T17:20:13;51.03;;;7.15;;
77522;SDS011;66637;-29.628;-49.938;2023-04-10T17:22:47;47.92;;;7.88;;
77522;SDS011;66637;-29.628;-49.938;2023-04-10T17:25:19;54.75;;;8.55;;